Time;durP1;ratioP1;P1;durP2;ratioP2;P2;SDS_P1;SDS_P2;PMS_P1;PMS_P2;Temp;Humidity;BMP_temperature;BMP_pressure;BME280_temperature;BME280_humidity;BME280_pressure;Samples;Min_cycle;Max_cycle;Signal;HPM_P1;HPM_P2
2022/01/04 00:00:50;;;;;;;7.53;6.57;;;10.40;99.90;;;;;;6154479;23;20013;-87
2022/01/04 00:03:23;;;;;;;10.25;7.03;;;10.40;99.90;;;;;;6154516;23;20013;-87
2022/01/04 00:08:41;;;;;;;11.27;6.75;;;10.40;99.90;;;;;;6156317;23;20036;-87
2022/01/04 00:11:42;;;;;;;9.25;6.20;;;10.40;99.90;;;;;;6155180;23;20380;-88
2022/01/04 00:13:59;;;;;;;11.00;6.25;;;10.40;99.90;;;;;;6155250;23;20060;-87
2022/01/04 00:16:31;;;;;;;8.57;6.03;;;10.40;99.90;;;;;;6131112;23;20001;-87
2022/01/04 00:19:07;;;;;;;11.98;6.63;;;10.40;99.90;;;;;;6154525;23;20001;-88
2022/01/04 00:21:36;;;;;;;11.13;6.75;;;10.30;99.90;;;;;;6155984;23;20079;-85
2022/01/04 00:24:19;;;;;;;10.63;5.88;;;10.30;99.90;;;;;;6154491;23;20420;-85
2022/01/04 00:26:49;;;;;;;7.22;5.63;;;10.30;99.90;;;;;;6154867;23;20006;-88
2022/01/04 00:29:17;;;;;;;9.63;6.43;;;10.30;99.90;;;;;;6155268;23;20002;-86
2022/01/04 00:31:53;;;;;;;8.57;5.93;;;10.30;99.90;;;;;;6154576;23;20009;-86
2022/01/04 00:34:25;;;;;;;10.32;7.00;;;10.30;99.90;;;;;;6154542;23;20084;-86
2022/01/04 00:36:55;;;;;;;;;;;10.30;99.90;;;;;;6130570;23;20087;-87
2022/01/04 00:39:27;;;;;;;11.65;6.68;;;10.30;99.90;;;;;;6130592;23;19987;-87
2022/01/04 00:41:52;;;;;;;;;;;10.30;99.90;;;;;;6154729;23;20010;-87
2022/01/04 00:44:21;;;;;;;9.85;7.00;;;10.40;99.90;;;;;;6154256;23;20394;-87
2022/01/04 00:46:53;;;;;;;10.20;7.30;;;10.40;99.90;;;;;;6154361;23;20006;-88
2022/01/04 00:49:30;;;;;;;;;;;;;;;;;;;;;
2022/01/04 00:52:01;;;;;;;8.32;7.25;;;10.30;99.90;;;;;;6155590;23;20076;-86
2022/01/04 00:54:35;;;;;;;13.05;7.25;;;10.30;99.90;;;;;;6131328;23;20029;-87
2022/01/04 00:57:09;;;;;;;8.75;7.47;;;10.30;99.90;;;;;;6154393;23;20009;-87
2022/01/04 00:59:40;;;;;;;8.73;6.57;;;10.30;99.90;;;;;;6154958;23;19997;-87
2022/01/04 01:02:08;;;;;;;10.85;7.50;;;10.30;99.90;;;;;;6155121;23;20097;-88
2022/01/04 01:04:34;;;;;;;9.25;7.90;;;10.30;99.90;;;;;;6155101;23;19998;-87
2022/01/04 01:07:02;;;;;;;12.98;8.13;;;10.30;99.90;;;;;;6155246;23;20002;-86
2022/01/04 01:09:35;;;;;;;11.23;7.75;;;10.30;99.90;;;;;;6155029;23;20019;-88
2022/01/04 01:12:01;;;;;;;10.02;7.68;;;10.30;99.90;;;;;;6155006;23;20420;-87
2022/01/04 01:14:29;;;;;;;10.88;8.35;;;10.30;99.90;;;;;;6158263;23;20001;-86
2022/01/04 01:17:03;;;;;;;9.55;7.80;;;10.30;99.90;;;;;;6145181;23;20002;-89
2022/01/04 01:19:38;;;;;;;8.27;7.38;;;10.20;99.90;;;;;;6159661;23;19990;-88
2022/01/04 01:22:09;;;;;;;10.57;7.28;;;10.20;99.90;;;;;;6182492;23;20032;-88
2022/01/04 01:24:40;;;;;;;8.98;7.47;;;10.20;99.90;;;;;;6182809;23;20021;-86
2022/01/04 01:27:08;;;;;;;10.55;7.60;;;10.20;99.90;;;;;;6182386;23;20008;-83
2022/01/04 01:29:41;;;;;;;10.75;7.97;;;10.20;99.90;;;;;;6132590;23;20005;-87
2022/01/04 01:32:14;;;;;;;9.38;7.50;;;10.20;99.90;;;;;;6156908;23;20447;-88
2022/01/04 01:34:43;;;;;;;10.45;7.57;;;10.20;99.90;;;;;;6158295;23;20025;-86
2022/01/04 01:37:14;;;;;;;11.27;7.85;;;10.30;99.90;;;;;;6155627;23;20456;-86
2022/01/04 01:39:40;;;;;;;10.93;7.82;;;10.30;99.90;;;;;;6132115;23;20006;-86
2022/01/04 01:42:09;;;;;;;10.50;7.63;;;10.30;99.90;;;;;;6155804;23;20014;-87
2022/01/04 01:44:39;;;;;;;10.43;8.52;;;10.30;99.90;;;;;;6156039;23;20032;-87
2022/01/04 01:47:08;;;;;;;9.85;7.97;;;10.30;99.90;;;;;;6156046;23;19998;-87
2022/01/04 01:49:41;;;;;;;10.25;8.50;;;10.30;99.90;;;;;;6156768;23;20005;-86
2022/01/04 01:52:12;;;;;;;10.77;9.07;;;10.30;99.90;;;;;;6131603;23;20005;-87
2022/01/04 01:54:41;;;;;;;10.55;8.23;;;10.30;99.90;;;;;;6156395;23;20005;-87
2022/01/04 01:57:09;;;;;;;10.57;9.05;;;10.30;99.90;;;;;;6155916;23;20008;-88
2022/01/04 01:59:37;;;;;;;10.20;8.38;;;10.30;99.90;;;;;;6156104;23;20143;-88
2022/01/04 02:02:06;;;;;;;13.00;9.40;;;10.30;99.90;;;;;;6131187;23;20436;-87
2022/01/04 02:04:41;;;;;;;10.80;9.60;;;10.30;99.90;;;;;;6156148;23;20005;-87
2022/01/04 02:07:14;;;;;;;14.10;9.77;;;10.30;99.90;;;;;;6155964;23;20009;-87
2022/01/04 02:09:53;;;;;;;14.13;10.18;;;10.30;99.90;;;;;;6130681;23;20018;-87
2022/01/04 02:12:23;;;;;;;11.55;9.90;;;10.30;99.90;;;;;;6155735;23;20021;-87
2022/01/04 02:14:54;;;;;;;11.45;10.25;;;10.30;99.90;;;;;;6156138;23;20014;-88
2022/01/04 02:17:26;;;;;;;11.35;9.23;;;10.30;99.90;;;;;;6131642;23;20009;-87
2022/01/04 02:19:54;;;;;;;;;;;10.20;99.90;;;;;;6156761;23;20367;-87
2022/01/04 02:22:23;;;;;;;11.00;9.07;;;10.30;99.90;;;;;;6155931;23;19920;-87
2022/01/04 02:24:58;;;;;;;9.82;8.82;;;10.20;99.90;;;;;;6157685;23;20024;-87
2022/01/04 02:27:27;;;;;;;11.38;9.40;;;10.20;99.90;;;;;;6132216;23;20140;-87
2022/01/04 02:29:58;;;;;;;12.52;9.40;;;10.20;99.90;;;;;;6131436;23;20001;-87
2022/01/04 02:32:33;;;;;;;12.57;8.60;;;10.20;99.90;;;;;;6157291;23;20005;-87
2022/01/04 02:35:04;;;;;;;11.18;8.82;;;10.20;99.90;;;;;;6155523;23;20002;-88
2022/01/04 02:37:33;;;;;;;9.27;8.15;;;10.20;99.90;;;;;;6155336;23;20076;-87
2022/01/04 02:40:02;;;;;;;10.00;8.85;;;10.20;99.90;;;;;;6156149;23;20005;-87
2022/01/04 02:42:37;;;;;;;10.02;8.50;;;10.10;99.90;;;;;;6156152;23;20090;-87
2022/01/04 02:45:06;;;;;;;12.18;8.82;;;10.10;99.90;;;;;;6133637;23;20012;-87
2022/01/04 02:47:38;;;;;;;8.93;7.82;;;10.10;99.90;;;;;;6130851;23;20017;-87
2022/01/04 02:50:10;;;;;;;11.50;8.07;;;10.10;99.90;;;;;;6156326;23;20301;-87
2022/01/04 02:52:36;;;;;;;11.23;7.65;;;10.10;99.90;;;;;;6156672;23;20001;-87
2022/01/04 02:55:11;;;;;;;10.48;8.27;;;10.10;99.90;;;;;;6132672;23;20002;-87
2022/01/04 02:57:54;;;;;;;10.95;8.30;;;10.10;99.90;;;;;;6181824;23;20006;-88
2022/01/04 03:00:20;;;;;;;10.50;8.27;;;10.00;99.90;;;;;;6183021;23;20057;-88
2022/01/04 03:02:48;;;;;;;9.68;7.82;;;10.10;99.90;;;;;;6158886;23;20029;-86
2022/01/04 03:05:17;;;;;;;9.98;8.80;;;10.00;99.90;;;;;;6158221;23;20005;-83
2022/01/04 03:07:46;;;;;;;10.48;8.43;;;10.10;99.90;;;;;;6132785;23;20052;-87
2022/01/04 03:10:11;;;;;;;12.50;8.57;;;10.00;99.90;;;;;;6156799;23;20080;-87
2022/01/04 03:12:48;;;;;;;10.93;8.27;;;10.00;99.90;;;;;;6155824;23;20424;-87
2022/01/04 03:15:17;;;;;;;9.75;8.05;;;10.10;99.90;;;;;;6108104;23;20010;-87
2022/01/04 03:17:51;;;;;;;10.65;8.68;;;10.00;99.90;;;;;;6157234;23;20053;-87
2022/01/04 03:20:30;;;;;;;10.73;7.90;;;10.00;99.90;;;;;;6155296;23;20029;-87
2022/01/04 03:23:08;;;;;;;11.07;7.70;;;10.00;99.90;;;;;;6131572;23;20440;-87
2022/01/04 03:25:41;;;;;;;10.30;8.45;;;10.00;99.90;;;;;;6155900;23;20006;-87
2022/01/04 03:28:09;;;;;;;10.35;8.48;;;10.00;99.90;;;;;;6155291;23;19997;-87
2022/01/04 03:30:38;;;;;;;9.95;8.13;;;10.10;99.90;;;;;;6155731;23;20056;-87
2022/01/04 03:33:08;;;;;;;11.13;7.43;;;10.00;99.90;;;;;;6155533;23;20001;-87
2022/01/04 03:35:43;;;;;;;10.85;8.45;;;10.00;99.90;;;;;;6155486;23;20076;-87
2022/01/04 03:38:19;;;;;;;9.90;8.23;;;10.00;99.90;;;;;;6155154;23;20005;-86
2022/01/04 03:40:54;;;;;;;9.50;8.50;;;10.10;99.90;;;;;;6130922;23;20340;-87
2022/01/04 03:43:37;;;;;;;11.32;9.05;;;10.00;99.90;;;;;;6154982;23;20084;-87
2022/01/04 03:46:28;;;;;;;11.52;8.75;;;10.10;99.90;;;;;;6155193;23;20008;-87
2022/01/04 03:48:56;;;;;;;13.40;8.90;;;10.00;99.90;;;;;;6155791;23;20005;-87
2022/01/04 03:51:30;;;;;;;10.95;8.55;;;10.10;99.90;;;;;;6154842;23;20001;-87
2022/01/04 03:54:02;;;;;;;16.17;10.02;;;10.00;99.90;;;;;;6155143;23;20088;-87
2022/01/04 03:56:30;;;;;;;10.73;9.63;;;10.00;99.90;;;;;;6131212;23;20451;-86
2022/01/04 03:58:59;;;;;;;11.52;9.82;;;10.00;99.90;;;;;;6154964;23;20008;-87
2022/01/04 04:01:25;;;;;;;10.60;9.07;;;10.00;99.90;;;;;;6130135;23;20450;-87
2022/01/04 04:04:17;;;;;;;12.75;9.98;;;10.00;99.90;;;;;;6154540;23;20084;-87
2022/01/04 04:06:52;;;;;;;12.80;9.63;;;10.00;99.90;;;;;;6132157;23;20439;-86
2022/01/04 04:09:30;;;;;;;11.70;9.90;;;10.00;99.90;;;;;;6132093;23;20001;-86
2022/01/04 04:11:59;;;;;;;11.95;9.55;;;9.90;99.90;;;;;;6155085;23;20112;-87
2022/01/04 04:14:30;;;;;;;11.45;10.25;;;10.00;99.90;;;;;;6130748;23;20006;-87
2022/01/04 04:17:09;;;;;;;12.75;10.35;;;9.90;99.90;;;;;;6131890;23;20005;-87
2022/01/04 04:19:38;;;;;;;11.63;10.15;;;10.00;99.90;;;;;;6155382;23;20002;-87
2022/01/04 04:22:06;;;;;;;10.65;9.55;;;9.90;99.90;;;;;;6155338;23;20014;-88
2022/01/04 04:24:34;;;;;;;10.80;9.68;;;10.00;99.90;;;;;;6155012;23;20076;-87
2022/01/04 04:27:00;;;;;;;13.05;10.13;;;9.90;99.90;;;;;;6130540;23;20002;-87
2022/01/04 04:29:32;;;;;;;11.20;10.07;;;9.90;99.90;;;;;;6155179;23;20355;-87
2022/01/04 04:32:00;;;;;;;12.98;10.20;;;9.90;99.90;;;;;;6155660;23;20005;-87
2022/01/04 04:34:29;;;;;;;13.00;9.90;;;9.90;99.90;;;;;;6156461;23;20004;-86
2022/01/04 04:37:08;;;;;;;12.18;9.95;;;9.90;99.90;;;;;;6164499;23;19986;-86
2022/01/04 04:39:36;;;;;;;12.68;10.35;;;9.90;99.90;;;;;;6183567;23;20049;-86
2022/01/04 04:42:04;;;;;;;11.45;10.25;;;9.90;99.90;;;;;;6182918;23;19997;-88
2022/01/04 04:44:36;;;;;;;11.32;9.15;;;9.90;99.90;;;;;;6147105;23;20006;-88
2022/01/04 04:47:04;;;;;;;11.05;9.93;;;9.90;99.90;;;;;;6156982;23;20005;-87
2022/01/04 04:49:30;;;;;;;12.45;10.70;;;9.90;99.90;;;;;;6154804;23;20006;-88
2022/01/04 04:51:59;;;;;;;12.80;9.80;;;9.90;99.90;;;;;;6154165;23;20454;-87
2022/01/04 04:54:33;;;;;;;13.25;10.32;;;9.90;99.90;;;;;;6154270;23;20005;-87
2022/01/04 04:57:01;;;;;;;11.90;10.15;;;9.90;99.90;;;;;;6154938;23;19998;-88
2022/01/04 04:59:33;;;;;;;15.10;10.10;;;9.80;99.90;;;;;;6155598;23;20001;-87
2022/01/04 05:01:58;;;;;;;;;;;9.80;99.90;;;;;;6130793;23;20020;-87
2022/01/04 05:04:27;;;;;;;11.60;9.40;;;9.80;99.90;;;;;;6129377;23;19905;-87
2022/01/04 05:06:55;;;;;;;14.18;10.45;;;9.80;99.90;;;;;;6154894;23;20032;-87
2022/01/04 05:09:21;;;;;;;12.00;10.75;;;9.80;99.90;;;;;;6154160;23;20084;-87
2022/01/04 05:12:12;;;;;;;13.38;10.40;;;9.80;99.90;;;;;;6154806;23;20454;-86
2022/01/04 05:14:49;;;;;;;;;;;;;;;;;;;;;
2022/01/04 05:17:18;;;;;;;13.40;10.20;;;9.70;99.90;;;;;;6156070;23;20076;-86
2022/01/04 05:19:49;;;;;;;11.57;10.05;;;9.70;99.90;;;;;;6155835;23;20081;-87
2022/01/04 05:22:15;;;;;;;13.82;11.23;;;9.70;99.90;;;;;;6154224;23;20009;-87
2022/01/04 05:24:43;;;;;;;13.75;10.82;;;9.70;99.90;;;;;;6153616;23;20056;-86
2022/01/04 05:27:09;;;;;;;11.85;10.00;;;9.70;99.90;;;;;;6154432;23;20002;-87
2022/01/04 05:29:37;;;;;;;12.05;10.18;;;9.70;99.90;;;;;;6154014;23;20328;-86
2022/01/04 05:32:08;;;;;;;17.23;10.38;;;9.70;99.90;;;;;;6128584;23;20013;-86
2022/01/04 05:34:39;;;;;;;14.25;9.77;;;9.70;99.90;;;;;;6154293;23;20439;-86
2022/01/04 05:37:08;;;;;;;10.55;9.38;;;9.70;99.90;;;;;;6153781;23;20021;-86
2022/01/04 05:39:39;;;;;;;13.77;10.82;;;9.70;99.90;;;;;;6153981;23;20360;-87
2022/01/04 05:42:15;;;;;;;;;;;;;;;;;;;;;
2022/01/04 05:44:41;;;;;;;12.23;9.80;;;9.80;99.90;;;;;;6155221;23;20072;-86
2022/01/04 05:47:10;;;;;;;13.18;10.88;;;9.80;99.90;;;;;;6129469;23;20466;-86
2022/01/04 05:49:37;;;;;;;12.82;10.05;;;9.80;99.90;;;;;;6153944;23;20041;-85
2022/01/04 05:52:04;;;;;;;13.80;9.77;;;9.80;99.90;;;;;;6154216;23;20083;-86
2022/01/04 05:54:30;;;;;;;12.85;10.15;;;9.80;99.90;;;;;;6130053;23;20013;-88
2022/01/04 05:57:03;;;;;;;12.93;10.25;;;9.80;99.90;;;;;;6154280;23;19998;-88
2022/01/04 05:59:37;;;;;;;12.80;9.82;;;9.80;99.90;;;;;;6154385;23;20006;-86
2022/01/04 06:02:06;;;;;;;17.00;10.73;;;9.80;99.90;;;;;;6107585;23;20010;-87
2022/01/04 06:04:32;;;;;;;13.07;10.82;;;9.80;99.90;;;;;;6154954;23;20005;-87
2022/01/04 06:07:18;;;;;;;12.60;10.50;;;9.80;99.90;;;;;;6155147;23;20076;-87
2022/01/04 06:09:48;;;;;;;13.63;10.43;;;9.70;99.90;;;;;;6130669;23;20056;-87
2022/01/04 06:15:06;;;;;;;11.65;10.10;;;9.70;99.90;;;;;;6194040;23;20069;-85
2022/01/04 06:17:38;;;;;;;12.45;9.77;;;9.70;99.90;;;;;;6182544;23;20013;-86
2022/01/04 06:20:17;;;;;;;12.43;10.75;;;9.70;99.90;;;;;;6177532;23;20028;-85
2022/01/04 06:22:47;;;;;;;15.40;11.15;;;9.80;99.90;;;;;;6158025;23;20017;-86
2022/01/04 06:25:17;;;;;;;15.13;10.85;;;9.70;99.90;;;;;;6153840;23;20088;-86
2022/01/04 06:27:49;;;;;;;13.00;11.18;;;9.70;99.90;;;;;;6154742;23;20005;-86
2022/01/04 06:30:18;;;;;;;15.10;12.02;;;9.70;99.90;;;;;;6157202;23;19998;-86
2022/01/04 06:32:46;;;;;;;15.98;11.88;;;9.70;99.90;;;;;;6155539;23;20076;-86
2022/01/04 06:35:13;;;;;;;15.57;12.23;;;9.70;99.90;;;;;;6156006;23;20056;-86
2022/01/04 06:37:53;;;;;;;14.02;11.13;;;9.70;99.90;;;;;;6155003;23;19998;-86
2022/01/04 06:40:27;;;;;;;13.90;11.85;;;9.70;99.90;;;;;;6155340;23;20092;-87
2022/01/04 06:42:54;;;;;;;15.00;10.70;;;9.70;99.90;;;;;;6132099;23;20431;-85
2022/01/04 06:45:32;;;;;;;16.20;11.30;;;9.70;99.90;;;;;;6157136;23;20001;-85
2022/01/04 06:48:00;;;;;;;15.70;11.63;;;9.70;99.90;;;;;;6155707;23;20001;-85
2022/01/04 06:50:26;;;;;;;13.57;11.27;;;9.70;99.90;;;;;;6157041;23;19998;-87
2022/01/04 06:52:56;;;;;;;13.55;11.25;;;9.70;99.90;;;;;;6154816;23;20016;-86
2022/01/04 06:55:29;;;;;;;16.45;12.10;;;9.70;99.90;;;;;;6131726;23;20096;-85
2022/01/04 06:58:00;;;;;;;17.00;13.05;;;9.70;99.90;;;;;;6133277;23;20440;-85
2022/01/04 07:00:26;;;;;;;17.67;12.68;;;9.70;99.90;;;;;;6131247;23;20375;-85
2022/01/04 07:02:52;;;;;;;14.93;12.25;;;9.70;99.90;;;;;;6154702;23;20001;-84
2022/01/04 07:05:27;;;;;;;16.67;12.30;;;9.70;99.90;;;;;;6156544;23;20002;-85
2022/01/04 07:08:03;;;;;;;19.80;13.10;;;9.60;99.90;;;;;;6131005;23;20006;-84
2022/01/04 07:10:29;;;;;;;14.90;12.35;;;9.70;99.90;;;;;;6153961;23;20402;-86
2022/01/04 07:12:56;;;;;;;20.15;12.73;;;9.70;99.90;;;;;;6155364;23;20425;-85
2022/01/04 07:15:43;;;;;;;16.17;12.30;;;9.70;99.90;;;;;;6155601;23;20424;-85
2022/01/04 07:18:10;;;;;;;15.73;12.48;;;9.70;99.90;;;;;;6153781;23;20072;-84
2022/01/04 07:20:46;;;;;;;16.48;12.23;;;9.70;99.90;;;;;;6105300;23;20088;-85
2022/01/04 07:23:12;;;;;;;15.45;12.13;;;9.70;99.90;;;;;;6106202;23;20102;-85
2022/01/04 07:25:40;;;;;;;18.08;13.45;;;9.70;99.90;;;;;;6154874;23;20046;-86
2022/01/04 07:28:34;;;;;;;15.82;12.82;;;9.70;99.90;;;;;;6155416;23;20012;-92
2022/01/04 07:31:24;;;;;;;14.95;11.63;;;9.70;99.90;;;;;;6136440;23;20097;-89
2022/01/04 07:33:57;;;;;;;14.82;12.55;;;9.70;99.90;;;;;;6156478;23;20001;-88
2022/01/04 07:37:18;;;;;;;15.77;13.30;;;9.70;99.90;;;;;;6156776;23;20005;-88
2022/01/04 07:40:02;;;;;;;19.67;14.00;;;9.70;99.90;;;;;;6155213;23;20005;-88
2022/01/04 07:42:36;;;;;;;17.85;14.25;;;9.70;99.90;;;;;;6156303;23;20006;-89
2022/01/04 07:45:26;;;;;;;21.60;14.18;;;9.70;99.90;;;;;;6132843;23;20140;-90
2022/01/04 07:50:51;;;;;;;18.73;13.82;;;9.70;99.90;;;;;;6177730;23;20053;-88
2022/01/04 07:56:27;;;;;;;19.38;13.98;;;9.70;99.90;;;;;;6081416;23;19993;-89
2022/01/04 07:59:16;;;;;;;17.98;14.27;;;9.60;99.90;;;;;;6177342;23;20013;-88
2022/01/04 08:02:05;;;;;;;;;;;;;;;;;;;;;
2022/01/04 08:04:54;;;;;;;17.40;13.57;;;9.60;99.90;;;;;;6155915;23;20504;-88
2022/01/04 08:07:39;;;;;;;19.73;14.95;;;9.50;99.90;;;;;;6134182;23;20009;-89
2022/01/04 08:10:52;;;;;;;20.42;14.88;;;9.60;99.90;;;;;;6155338;23;20021;-89
2022/01/04 08:17:13;;;;;;;;;;;;;;;;;;;;;
2022/01/04 08:20:11;;;;;;;19.60;14.98;;;9.50;99.90;;;;;;6155320;23;20077;-89
2022/01/04 08:23:10;;;;;;;;;;;;;;;;;;;;;
2022/01/04 08:26:20;;;;;;;24.25;16.00;;;9.60;99.90;;;;;;6067877;23;20093;-90
2022/01/04 08:29:04;;;;;;;;;;;;;;;;;;;;;
2022/01/04 08:31:58;;;;;;;;;;;;;;;;;;;;;
2022/01/04 08:34:51;;;;;;;23.48;17.73;;;9.50;99.90;;;;;;6154980;23;20084;-88
2022/01/04 08:37:19;;;;;;;24.33;17.70;;;9.60;99.90;;;;;;6131988;23;20016;-88
2022/01/04 08:39:50;;;;;;;27.70;20.05;;;9.60;99.90;;;;;;6153803;23;20025;-87
2022/01/04 08:42:43;;;;;;;26.05;19.65;;;9.60;99.90;;;;;;6154484;23;20109;-86
2022/01/04 08:45:17;;;;;;;29.15;20.20;;;9.60;99.90;;;;;;6154831;23;20005;-86
2022/01/04 08:48:04;;;;;;;28.73;20.58;;;9.50;99.90;;;;;;6154984;23;20424;-86
2022/01/04 08:50:33;;;;;;;24.52;18.13;;;9.60;99.90;;;;;;6153588;23;20013;-87
2022/01/04 08:53:12;;;;;;;27.00;19.30;;;9.60;99.90;;;;;;6130202;23;20005;-87
2022/01/04 08:55:44;;;;;;;26.27;18.58;;;9.60;99.90;;;;;;6131032;23;20104;-87
2022/01/04 08:58:24;;;;;;;;;;;;;;;;;;;;;
2022/01/04 09:01:03;;;;;;;25.58;18.45;;;9.60;99.90;;;;;;6155074;23;20016;-88
2022/01/04 09:03:32;;;;;;;24.67;17.35;;;9.60;99.90;;;;;;6129196;23;20006;-87
2022/01/04 09:06:01;;;;;;;26.23;18.27;;;9.60;99.90;;;;;;6129909;23;20032;-87
2022/01/04 09:08:30;;;;;;;25.88;18.70;;;9.60;99.90;;;;;;6154283;23;20005;-86
2022/01/04 09:11:05;;;;;;;22.85;17.45;;;9.70;99.90;;;;;;6153827;23;20022;-92
2022/01/04 09:13:42;;;;;;;23.50;17.35;;;9.60;99.90;;;;;;6106130;23;20088;-86
2022/01/04 09:18:43;;;;;;;25.88;18.60;;;9.70;99.90;;;;;;6154546;23;20080;-87
2022/01/04 09:19:03;;;;;;;26.27;18.50;;;9.60;99.90;;;;;;6155952;23;20012;-86
2022/01/04 09:21:30;;;;;;;25.25;17.42;;;9.70;99.90;;;;;;6154410;23;20018;-86
2022/01/04 09:24:00;;;;;;;20.58;16.50;;;9.70;99.90;;;;;;6154467;23;20428;-88
2022/01/04 09:26:30;;;;;;;23.88;18.10;;;9.70;99.90;;;;;;6161885;23;19997;-85
2022/01/04 09:28:59;;;;;;;25.63;18.30;;;9.70;99.90;;;;;;6182360;23;19994;-87
2022/01/04 09:31:41;;;;;;;;;;;;;;;;;;;;;
2022/01/04 09:34:07;;;;;;;25.80;19.05;;;9.70;99.90;;;;;;6182334;23;20001;-85
2022/01/04 09:36:37;;;;;;;24.23;19.00;;;9.70;99.90;;;;;;6154112;23;20080;-85
2022/01/04 09:39:18;;;;;;;24.63;18.27;;;9.70;99.90;;;;;;6161658;23;20002;-85
2022/01/04 09:41:45;;;;;;;22.88;17.25;;;9.70;99.90;;;;;;6154293;23;20084;-85
2022/01/04 09:44:16;;;;;;;24.23;17.65;;;9.70;99.90;;;;;;6153327;23;20436;-85
2022/01/04 09:46:42;;;;;;;24.00;18.03;;;9.70;99.90;;;;;;6155514;23;20017;-85
2022/01/04 09:49:14;;;;;;;24.15;18.15;;;9.70;99.90;;;;;;6131226;23;20044;-85
2022/01/04 09:51:41;;;;;;;25.02;17.13;;;9.70;99.90;;;;;;6156137;23;20006;-85
2022/01/04 09:54:08;;;;;;;14.00;10.07;;;9.60;99.90;;;;;;6129096;23;20041;-85
2022/01/04 09:56:39;;;;;;;8.73;6.60;;;9.60;99.90;;;;;;6157407;23;20060;-85
2022/01/04 09:59:10;;;;;;;8.07;5.75;;;9.50;99.90;;;;;;6106604;23;20033;-86
2022/01/04 10:02:12;;;;;;;7.80;6.38;;;9.50;99.90;;;;;;6132725;23;20045;-86
2022/01/04 10:05:21;;;;;;;9.13;6.22;;;9.40;99.90;;;;;;6157766;23;20009;-85
2022/01/04 10:08:10;;;;;;;9.20;6.88;;;9.40;99.90;;;;;;6036071;23;20018;-86
2022/01/04 10:10:41;;;;;;;9.70;6.60;;;9.30;99.90;;;;;;6153935;23;20043;-85
2022/01/04 10:13:14;;;;;;;9.05;5.60;;;9.30;99.90;;;;;;6129752;23;20009;-86
2022/01/04 10:15:50;;;;;;;7.20;5.15;;;9.30;99.90;;;;;;6155105;23;20008;-85
2022/01/04 10:18:28;;;;;;;5.60;4.30;;;9.30;99.90;;;;;;6155299;23;20010;-85
2022/01/04 10:21:21;;;;;;;5.40;3.90;;;9.30;99.90;;;;;;6154740;23;20060;-85
2022/01/04 10:23:51;;;;;;;6.70;4.40;;;9.30;99.90;;;;;;6154489;23;20061;-85
2022/01/04 10:26:28;;;;;;;5.72;3.80;;;9.30;99.90;;;;;;6150900;23;20403;-86
2022/01/04 10:28:56;;;;;;;6.38;4.65;;;9.30;99.90;;;;;;6155840;23;20004;-88
2022/01/04 10:31:22;;;;;;;6.75;4.78;;;9.30;99.90;;;;;;6156350;23;20096;-88
2022/01/04 10:34:02;;;;;;;8.77;6.15;;;9.30;99.90;;;;;;6152424;23;20432;-88
2022/01/04 10:36:38;;;;;;;8.85;6.72;;;9.30;99.90;;;;;;6156308;23;20009;-88
2022/01/04 10:39:18;;;;;;;9.63;8.25;;;9.30;99.90;;;;;;6156241;23;20017;-87
2022/01/04 10:41:47;;;;;;;10.80;8.18;;;9.40;99.90;;;;;;6156137;23;20013;-87
2022/01/04 10:44:31;;;;;;;;;;;;;;;;;;;;;
2022/01/04 10:47:11;;;;;;;12.32;9.65;;;9.40;99.90;;;;;;6156333;23;20085;-87
2022/01/04 10:49:41;;;;;;;13.18;9.60;;;9.40;99.90;;;;;;6156903;23;20361;-85
2022/01/04 10:52:12;;;;;;;13.68;10.27;;;9.50;99.90;;;;;;6155848;23;19998;-86
2022/01/04 10:54:39;;;;;;;15.50;11.43;;;9.50;99.90;;;;;;6132294;23;20017;-85
2022/01/04 10:57:15;;;;;;;17.48;12.05;;;9.50;99.90;;;;;;6131998;23;20006;-85
2022/01/04 10:59:48;;;;;;;16.80;12.00;;;9.60;99.90;;;;;;6157710;23;20049;-86
2022/01/04 11:02:33;;;;;;;19.15;13.50;;;9.60;99.90;;;;;;6159809;23;20319;-87
2022/01/04 11:05:29;;;;;;;18.55;13.23;;;9.70;99.90;;;;;;6170312;23;19986;-86
2022/01/04 11:08:05;;;;;;;17.00;13.20;;;9.70;99.90;;;;;;6178960;23;19996;-89
2022/01/04 11:10:35;;;;;;;19.73;13.77;;;9.70;99.90;;;;;;6175449;23;20044;-88
2022/01/04 11:13:01;;;;;;;17.80;14.27;;;9.70;99.90;;;;;;6159585;23;20012;-86
2022/01/04 11:15:33;;;;;;;19.77;14.52;;;9.70;99.90;;;;;;6156285;23;20025;-86
2022/01/04 11:18:00;;;;;;;18.75;13.63;;;9.70;99.90;;;;;;6154607;23;20353;-86
2022/01/04 11:20:39;;;;;;;18.08;14.40;;;9.80;99.90;;;;;;6154183;23;20060;-86
2022/01/04 11:23:09;;;;;;;21.05;14.63;;;9.80;99.90;;;;;;6156791;23;20008;-85
2022/01/04 11:25:42;;;;;;;20.75;16.42;;;9.80;99.90;;;;;;6131371;23;20005;-85
2022/01/04 11:28:15;;;;;;;17.95;13.90;;;9.80;99.90;;;;;;6154705;23;20405;-86
2022/01/04 11:30:59;;;;;;;17.30;13.57;;;9.80;99.90;;;;;;6154643;23;20434;-87
2022/01/04 11:33:33;;;;;;;15.98;12.52;;;9.90;99.90;;;;;;6154208;23;20009;-86
2022/01/04 11:36:06;;;;;;;16.55;12.55;;;9.90;99.90;;;;;;6154812;23;19997;-87
2022/01/04 11:38:40;;;;;;;15.85;12.63;;;9.90;99.90;;;;;;6129208;23;20012;-86
2022/01/04 11:41:06;;;;;;;15.38;11.85;;;9.90;99.90;;;;;;6153479;23;20021;-87
2022/01/04 11:43:35;;;;;;;16.83;12.75;;;9.90;99.90;;;;;;6155046;23;20491;-87
2022/01/04 11:46:04;;;;;;;18.58;12.98;;;9.90;99.90;;;;;;6154568;23;20451;-86
2022/01/04 11:48:40;;;;;;;15.20;12.23;;;9.80;99.90;;;;;;6154700;23;20029;-86
2022/01/04 11:51:37;;;;;;;13.88;10.35;;;9.80;99.90;;;;;;6154126;23;20032;-86
2022/01/04 11:54:32;;;;;;;14.52;10.98;;;9.80;99.90;;;;;;6141202;23;20085;-88
2022/01/04 11:57:09;;;;;;;13.70;10.13;;;9.80;99.90;;;;;;6155875;23;20077;-89
2022/01/04 11:59:56;;;;;;;13.23;10.15;;;9.80;99.90;;;;;;6156055;23;20503;-88
2022/01/04 12:02:38;;;;;;;12.18;9.82;;;9.80;99.90;;;;;;6154906;23;20092;-88
2022/01/04 12:05:04;;;;;;;10.38;8.10;;;9.90;99.90;;;;;;6154473;23;20024;-88
2022/01/04 12:07:42;;;;;;;9.48;7.00;;;9.90;99.90;;;;;;6155189;23;20018;-88
2022/01/04 12:10:23;;;;;;;9.65;6.38;;;9.80;99.90;;;;;;6154056;23;20014;-89
2022/01/04 12:13:14;;;;;;;9.52;6.78;;;9.70;99.90;;;;;;6154862;23;20032;-88
2022/01/04 12:15:51;;;;;;;9.82;6.65;;;9.80;99.90;;;;;;6156551;23;20001;-87
2022/01/04 12:18:23;;;;;;;8.98;6.72;;;9.70;99.90;;;;;;6153391;23;20328;-87
2022/01/04 12:20:55;;;;;;;10.80;6.63;;;9.70;99.90;;;;;;6154756;23;20033;-87
2022/01/04 12:23:49;;;;;;;9.85;6.63;;;9.70;99.90;;;;;;6154584;23;20005;-86
2022/01/04 12:26:36;;;;;;;10.15;6.47;;;9.70;99.90;;;;;;6154637;23;20080;-89
2022/01/04 12:29:02;;;;;;;15.65;9.82;;;9.70;99.90;;;;;;6155632;23;19998;-91
2022/01/04 12:32:03;;;;;;;26.95;19.17;;;9.70;99.90;;;;;;6156002;23;20009;-90
2022/01/04 12:34:37;;;;;;;17.67;10.10;;;9.70;99.90;;;;;;6155888;23;20029;-90
2022/01/04 12:37:21;;;;;;;13.15;7.25;;;9.60;99.90;;;;;;6159051;23;20025;-90
2022/01/04 12:39:54;;;;;;;8.02;4.82;;;9.60;99.90;;;;;;6163007;23;20037;-89
2022/01/04 12:42:27;;;;;;;6.95;4.25;;;9.60;99.90;;;;;;6179397;23;20045;-89
2022/01/04 12:45:05;;;;;;;5.72;3.33;;;9.60;99.90;;;;;;6148322;23;20044;-87
2022/01/04 12:47:38;;;;;;;6.28;3.03;;;9.50;99.90;;;;;;6167091;23;20005;-89
2022/01/04 12:50:25;;;;;;;3.80;2.30;;;9.50;99.90;;;;;;6135528;23;20100;-89
2022/01/04 12:53:03;;;;;;;;;;;;;;;;;;;;;
2022/01/04 12:55:41;;;;;;;6.63;2.55;;;9.40;99.90;;;;;;6157063;23;20081;-88
2022/01/04 12:58:12;;;;;;;5.30;2.78;;;9.40;99.90;;;;;;6132075;23;20023;-89
2022/01/04 13:00:42;;;;;;;6.40;3.17;;;9.30;99.90;;;;;;6154902;23;20029;-88
2022/01/04 13:03:10;;;;;;;6.28;2.88;;;9.30;99.90;;;;;;6130752;23;20037;-89
2022/01/04 13:05:41;;;;;;;6.03;2.40;;;9.20;99.90;;;;;;6155276;23;20002;-90
2022/01/04 13:08:27;;;;;;;3.85;1.92;;;9.20;99.90;;;;;;6155825;23;20435;-87
2022/01/04 13:11:15;;;;;;;3.03;1.55;;;9.20;99.90;;;;;;6134037;23;20025;-86
2022/01/04 13:13:42;;;;;;;2.30;1.50;;;9.20;99.90;;;;;;6154310;23;20443;-86
2022/01/04 13:16:36;;;;;;;3.55;1.67;;;9.20;99.90;;;;;;6153887;23;20046;-85
2022/01/04 13:19:30;;;;;;;4.63;1.67;;;9.20;99.90;;;;;;6153683;23;20510;-86
2022/01/04 13:22:37;;;;;;;2.72;1.40;;;9.20;99.90;;;;;;6156515;23;20009;-86
2022/01/04 13:25:32;;;;;;;3.92;1.33;;;9.20;99.90;;;;;;6156277;23;20016;-85
2022/01/04 13:31:00;;;;;;;4.88;1.30;;;9.20;99.90;;;;;;6158867;23;20336;-88
2022/01/04 13:33:39;;;;;;;;;;;;;;;;;;;;;
2022/01/04 13:36:11;;;;;;;4.28;1.20;;;9.10;99.90;;;;;;6158489;23;20085;-89
2022/01/04 13:38:40;;;;;;;2.95;1.13;;;9.10;99.90;;;;;;6156750;23;20439;-88
2022/01/04 13:41:14;;;;;;;1.60;1.20;;;9.10;99.90;;;;;;6133087;23;20428;-87
2022/01/04 13:44:04;;;;;;;2.67;1.25;;;9.20;99.90;;;;;;6157759;23;20343;-87
2022/01/04 13:46:34;;;;;;;5.97;1.50;;;9.10;99.90;;;;;;6155831;23;20020;-87
2022/01/04 13:49:02;;;;;;;4.65;1.25;;;9.10;99.90;;;;;;6156392;23;20001;-87
2022/01/04 13:51:34;;;;;;;3.67;1.10;;;9.10;99.90;;;;;;6155604;23;20033;-86
2022/01/04 13:54:18;;;;;;;4.10;1.10;;;9.10;99.90;;;;;;6132976;23;20424;-86